createdAt,value
2022-12-25T00:01:52.181Z,100583.63
2022-12-25T00:04:18.597Z,100589.88
2022-12-25T00:06:45.006Z,100606.50
2022-12-25T00:09:11.307Z,100593.88
2022-12-25T00:11:37.861Z,100593.31
2022-12-25T00:14:04.197Z,100593.81
2022-12-25T00:16:30.583Z,100603.81
2022-12-25T00:18:57.480Z,100615.25
2022-12-25T00:21:25.187Z,100621.72
2022-12-25T00:23:55.747Z,100628.19
2022-12-25T00:26:22.730Z,100608.84
2022-12-25T00:28:54.841Z,100621.00
2022-12-25T00:31:21.707Z,100619.00
2022-12-25T00:33:49.589Z,100626.25
2022-12-25T00:36:18.268Z,100633.44
2022-12-25T00:38:45.602Z,100627.22
2022-12-25T00:41:18.803Z,100632.97
2022-12-25T00:43:45.187Z,100626.25
2022-12-25T00:46:13.139Z,100631.69
2022-12-25T00:48:40.015Z,100631.09
2022-12-25T00:51:10.371Z,100625.06
2022-12-25T00:53:36.794Z,100622.28
2022-12-25T00:56:06.313Z,100630.44
2022-12-25T00:58:34.641Z,100633.25
2022-12-25T01:01:01.300Z,100631.81
2022-12-25T01:03:28.377Z,100629.34
2022-12-25T01:06:06.909Z,100626.09
2022-12-25T01:08:36.809Z,100623.00
2022-12-25T01:11:06.595Z,100618.28
2022-12-25T01:13:35.070Z,100615.75
2022-12-25T01:16:12.415Z,100621.63
2022-12-25T01:18:39.099Z,100632.41
2022-12-25T01:21:09.392Z,100637.25
2022-12-25T01:23:38.005Z,100630.88
2022-12-25T01:26:05.973Z,100628.22
2022-12-25T01:28:32.426Z,100625.06
2022-12-25T01:30:58.746Z,100619.28
2022-12-25T01:33:25.065Z,100612.75
2022-12-25T01:35:51.465Z,100624.03
2022-12-25T01:38:17.901Z,100627.53
2022-12-25T01:40:44.361Z,100630.09
2022-12-25T01:43:56.420Z,100632.03
2022-12-25T01:46:22.850Z,100642.03
2022-12-25T01:48:50.093Z,100640.41
2022-12-25T01:51:27.741Z,100638.25
2022-12-25T01:53:57.719Z,100636.59
2022-12-25T01:56:27.119Z,100637.94
2022-12-25T01:58:56.261Z,100641.16
2022-12-25T02:01:22.849Z,100645.75
2022-12-25T02:03:49.311Z,100647.34
2022-12-25T02:06:15.804Z,100630.72
2022-12-25T02:08:43.014Z,100627.97
2022-12-25T02:11:09.303Z,100624.22
2022-12-25T02:13:35.733Z,100619.94
2022-12-25T02:16:06.653Z,100630.50
2022-12-25T02:18:52.340Z,100638.28
2022-12-25T02:21:48.240Z,100646.34
2022-12-25T02:24:42.831Z,100647.69
2022-12-25T02:27:11.877Z,100636.59
2022-12-25T02:30:03.245Z,100636.41
2022-12-25T02:32:37.368Z,100630.78
2022-12-25T02:35:03.645Z,100625.47
2022-12-25T02:37:44.331Z,100621.69
2022-12-25T02:40:52.633Z,100634.03
2022-12-25T02:43:28.081Z,100619.78
2022-12-25T02:45:57.069Z,100625.91
2022-12-25T02:48:27.724Z,100625.03
2022-12-25T02:50:56.436Z,100602.63
2022-12-25T02:53:23.118Z,100604.59
2022-12-25T02:55:50.669Z,100613.72
2022-12-25T02:58:21.660Z,100626.44
2022-12-25T03:00:52.393Z,100618.31
2022-12-25T03:03:22.283Z,100613.84
2022-12-25T03:05:49.759Z,100609.31
2022-12-25T03:08:23.918Z,100611.44
2022-12-25T03:10:59.660Z,100607.59
2022-12-25T03:13:33.815Z,100611.34
2022-12-25T03:16:00.418Z,100619.97
2022-12-25T03:18:29.661Z,100619.63
2022-12-25T03:20:56.067Z,100624.16
2022-12-25T03:23:28.757Z,100614.94
2022-12-25T03:25:55.207Z,100611.09
2022-12-25T03:28:21.576Z,100613.22
2022-12-25T03:31:09.973Z,100612.19
2022-12-25T03:33:55.039Z,100618.88
2022-12-25T03:36:34.995Z,100626.09
2022-12-25T03:39:18.831Z,100627.72
2022-12-25T03:41:51.244Z,100627.88
2022-12-25T03:44:48.897Z,100630.50
2022-12-25T03:47:22.797Z,100637.03
2022-12-25T03:50:00.862Z,100634.81
2022-12-25T03:52:29.754Z,100629.00
2022-12-25T03:55:01.389Z,100635.50
2022-12-25T03:57:27.907Z,100631.22
2022-12-25T03:59:54.357Z,100634.56
2022-12-25T04:02:20.961Z,100626.72
2022-12-25T04:04:47.532Z,100618.34
2022-12-25T04:07:13.969Z,100613.72
2022-12-25T04:09:40.290Z,100617.78
2022-12-25T04:12:06.882Z,100609.94
2022-12-25T04:14:33.193Z,100604.81
2022-12-25T04:16:59.496Z,100598.09
2022-12-25T04:19:25.918Z,100586.81
2022-12-25T04:21:52.216Z,100590.34
2022-12-25T04:24:18.608Z,100583.25
2022-12-25T04:26:45.051Z,100573.28
2022-12-25T04:29:11.468Z,100570.84
2022-12-25T04:31:37.908Z,100573.06
2022-12-25T04:34:04.321Z,100577.34
2022-12-25T04:36:30.752Z,100588.13
2022-12-25T04:38:57.172Z,100578.19
2022-12-25T04:41:23.512Z,100572.56
2022-12-25T04:43:49.828Z,100568.81
2022-12-25T04:46:16.161Z,100565.53
2022-12-25T04:48:42.664Z,100561.72
2022-12-25T04:51:10.925Z,100571.16
2022-12-25T04:53:37.311Z,100576.34
2022-12-25T04:56:03.676Z,100583.06
2022-12-25T04:58:31.614Z,100584.72
2022-12-25T05:01:01.718Z,100584.75
2022-12-25T05:03:28.769Z,100584.56
2022-12-25T05:05:55.423Z,100575.94
2022-12-25T05:08:22.463Z,100574.31
2022-12-25T05:10:49.200Z,100571.09
2022-12-25T05:13:15.609Z,100568.34
2022-12-25T05:15:43.220Z,100564.63
2022-12-25T05:18:10.003Z,100566.19
2022-12-25T05:20:40.303Z,100567.34
2022-12-25T05:23:07.311Z,100574.91
2022-12-25T05:25:33.657Z,100576.00
2022-12-25T05:27:59.964Z,100569.50
2022-12-25T05:30:26.316Z,100569.50
2022-12-25T05:32:52.619Z,100573.06
2022-12-25T05:35:18.946Z,100569.47
2022-12-25T05:37:45.310Z,100558.25
2022-12-25T05:40:11.819Z,100560.94
2022-12-25T05:42:38.176Z,100564.16
2022-12-25T05:45:04.955Z,100562.00
2022-12-25T05:47:31.369Z,100564.13
2022-12-25T05:49:57.707Z,100565.75
2022-12-25T05:52:24.066Z,100558.78
2022-12-25T05:54:50.377Z,100549.13
2022-12-25T05:57:16.729Z,100563.34
2022-12-25T05:59:43.109Z,100564.75
2022-12-25T06:02:09.507Z,100550.19
2022-12-25T06:04:35.912Z,100556.88
2022-12-25T06:07:02.312Z,100562.31
2022-12-25T06:09:28.669Z,100554.78
2022-12-25T06:11:55.083Z,100553.97
2022-12-25T06:14:21.392Z,100552.88
2022-12-25T06:16:51.512Z,100549.66
2022-12-25T06:19:18.513Z,100534.00
2022-12-25T06:21:44.921Z,100525.81
2022-12-25T06:24:16.142Z,100514.78
2022-12-25T06:26:45.667Z,100515.53
2022-12-25T06:29:12.094Z,100521.28
2022-12-25T06:31:38.669Z,100523.97
2022-12-25T06:34:05.074Z,100516.72
2022-12-25T06:36:31.427Z,100515.13
2022-12-25T06:39:00.923Z,100513.53
2022-12-25T06:41:29.079Z,100527.53
2022-12-25T06:43:58.357Z,100528.09
2022-12-25T06:46:27.228Z,100524.28
2022-12-25T06:48:53.737Z,100519.75
2022-12-25T06:51:23.007Z,100522.72
2022-12-25T06:53:50.934Z,100519.50
2022-12-25T06:56:21.455Z,100515.16
2022-12-25T06:58:50.510Z,100518.38
2022-12-25T07:01:21.186Z,100515.97
2022-12-25T07:03:50.455Z,100515.22
2022-12-25T07:06:16.920Z,100507.69
2022-12-25T07:08:43.229Z,100510.94
2022-12-25T07:11:09.593Z,100511.19
2022-12-25T07:13:35.979Z,100500.94
2022-12-25T07:16:04.872Z,100494.97
2022-12-25T07:18:32.384Z,100500.34
2022-12-25T07:20:58.687Z,100498.47
2022-12-25T07:23:26.142Z,100491.19
2022-12-25T07:25:56.546Z,100495.22
2022-12-25T07:28:22.996Z,100488.44
2022-12-25T07:30:49.417Z,100479.00
2022-12-25T07:33:16.275Z,100473.63
2022-12-25T07:35:43.012Z,100472.81
2022-12-25T07:38:09.815Z,100472.78
2022-12-25T07:40:36.283Z,100484.91
2022-12-25T07:43:02.734Z,100487.66
2022-12-25T07:45:29.311Z,100478.25
2022-12-25T07:47:56.929Z,100488.78
2022-12-25T07:50:26.300Z,100485.56
2022-12-25T07:52:52.748Z,100483.16
2022-12-25T07:55:19.213Z,100482.63
2022-12-25T07:57:45.602Z,100471.63
2022-12-25T08:00:12.640Z,100472.16
2022-12-25T08:02:39.838Z,100466.78
2022-12-25T08:05:07.430Z,100472.97
2022-12-25T08:07:33.967Z,100469.47
2022-12-25T08:10:00.312Z,100464.09
2022-12-25T08:12:26.660Z,100456.00
2022-12-25T08:14:53.007Z,100462.19
2022-12-25T08:17:19.464Z,100468.94
2022-12-25T08:19:45.897Z,100472.94
2022-12-25T08:22:12.204Z,100477.00
2022-12-25T08:24:38.544Z,100482.41
2022-12-25T08:27:04.997Z,100489.97
2022-12-25T08:29:31.410Z,100489.44
2022-12-25T08:31:57.809Z,100482.16
2022-12-25T08:34:24.187Z,100484.59
2022-12-25T08:36:50.618Z,100484.06
2022-12-25T08:39:16.957Z,100483.50
2022-12-25T08:41:43.317Z,100477.59
2022-12-25T08:44:12.055Z,100473.00
2022-12-25T08:46:38.506Z,100470.84
2022-12-25T08:49:05.223Z,100459.53
2022-12-25T08:51:31.886Z,100463.03
2022-12-25T08:54:00.118Z,100456.00
2022-12-25T08:56:27.409Z,100449.50
2022-12-25T08:58:53.845Z,100453.56
2022-12-25T09:01:20.347Z,100451.16
2022-12-25T09:03:46.931Z,100465.41
2022-12-25T09:06:15.125Z,100479.16
2022-12-25T09:08:47.993Z,100479.72
2022-12-25T09:11:15.699Z,100476.19
2022-12-25T09:13:42.113Z,100480.78
2022-12-25T09:16:11.496Z,100480.22
2022-12-25T09:18:38.274Z,100478.88
2022-12-25T09:21:08.063Z,100469.97
2022-12-25T09:23:34.666Z,100467.00
2022-12-25T09:26:05.500Z,100464.28
2022-12-25T09:28:32.317Z,100465.63
2022-12-25T09:30:59.448Z,100482.66
2022-12-25T09:33:26.026Z,100479.13
2022-12-25T09:36:04.873Z,100471.56
2022-12-25T09:38:31.779Z,100455.13
2022-12-25T09:41:16.887Z,100447.81
2022-12-25T09:43:54.940Z,100436.50
2022-12-25T09:46:24.796Z,100427.88
2022-12-25T09:49:18.819Z,100419.78
2022-12-25T09:51:48.622Z,100414.69
2022-12-25T09:54:36.439Z,100413.31
2022-12-25T09:57:03.760Z,100407.38
2022-12-25T09:59:30.535Z,100410.03
2022-12-25T10:02:18.677Z,100392.75
2022-12-25T10:05:06.734Z,100387.59
2022-12-25T10:07:50.993Z,100399.69
2022-12-25T10:10:38.496Z,100408.59
2022-12-25T10:13:20.363Z,100420.19
2022-12-25T10:16:04.805Z,100421.75
2022-12-25T10:18:38.608Z,100423.41
2022-12-25T10:21:13.028Z,100412.28
2022-12-25T10:24:05.454Z,100407.66
2022-12-25T10:26:33.551Z,100406.00
2022-12-25T10:29:13.880Z,100400.09
2022-12-25T10:31:41.555Z,100388.97
2022-12-25T10:34:10.368Z,100400.34
2022-12-25T10:36:36.713Z,100410.28
2022-12-25T10:39:03.528Z,100411.38
2022-12-25T10:42:07.445Z,100416.78
2022-12-25T10:44:33.830Z,100415.34
2022-12-25T10:47:01.960Z,100407.59
2022-12-25T10:49:31.756Z,100411.28
2022-12-25T10:51:58.447Z,100416.75
2022-12-25T10:54:30.755Z,100425.47
2022-12-25T10:57:00.324Z,100419.75
2022-12-25T10:59:35.112Z,100403.84
2022-12-25T11:02:29.342Z,100392.56
2022-12-25T11:05:03.965Z,100380.66
2022-12-25T11:07:32.099Z,100378.19
2022-12-25T11:10:05.898Z,100365.47
2022-12-25T11:12:37.792Z,100368.69
2022-12-25T11:15:26.726Z,100365.63
2022-12-25T11:17:53.122Z,100374.00
2022-12-25T11:20:20.400Z,100367.31
2022-12-25T11:22:49.517Z,100368.69
2022-12-25T11:25:23.561Z,100388.41
2022-12-25T11:28:01.591Z,100385.69
2022-12-25T11:30:33.542Z,100368.03
2022-12-25T11:33:10.602Z,100344.78
2022-12-25T11:35:49.762Z,100341.06
2022-12-25T11:38:16.245Z,100345.38
2022-12-25T11:40:49.084Z,100333.38
2022-12-25T11:43:23.425Z,100328.47
2022-12-25T11:46:01.492Z,100328.75
2022-12-25T11:48:33.755Z,100333.19
2022-12-25T11:51:03.264Z,100330.75
2022-12-25T11:53:36.720Z,100327.00
2022-12-25T11:56:11.356Z,100313.16
2022-12-25T11:58:42.148Z,100300.75
2022-12-25T12:01:18.486Z,100302.56
2022-12-25T12:03:45.065Z,100294.97
2022-12-25T12:06:27.763Z,100288.47
2022-12-25T12:09:02.816Z,100285.97
2022-12-25T12:11:45.403Z,100276.03
2022-12-25T12:14:37.947Z,100255.06
2022-12-25T12:17:04.545Z,100258.09
2022-12-25T12:19:31.591Z,100251.16
2022-12-25T12:22:03.731Z,100252.31
2022-12-25T12:24:40.466Z,100239.91
2022-12-25T12:27:22.347Z,100239.53
2022-12-25T12:29:52.041Z,100239.78
2022-12-25T12:32:27.362Z,100240.84
2022-12-25T12:34:54.558Z,100227.81
2022-12-25T12:37:33.986Z,100228.69
2022-12-25T12:40:01.606Z,100221.91
2022-12-25T12:42:31.181Z,100217.63
2022-12-25T12:45:08.296Z,100217.97
2022-12-25T12:47:41.039Z,100215.00
2022-12-25T12:50:25.904Z,100214.13
2022-12-25T12:52:52.350Z,100216.06
2022-12-25T12:55:36.754Z,100208.72
2022-12-25T12:58:05.941Z,100203.78
2022-12-25T13:00:48.341Z,100196.66
2022-12-25T13:03:27.468Z,100187.16
2022-12-25T13:06:00.916Z,100180.59
2022-12-25T13:08:51.487Z,100177.19
2022-12-25T13:11:22.352Z,100167.72
2022-12-25T13:13:52.693Z,100152.06
2022-12-25T13:16:29.819Z,100133.63
2022-12-25T13:18:56.719Z,100144.09
2022-12-25T13:21:28.752Z,100135.53
2022-12-25T13:24:05.402Z,100127.97
2022-12-25T13:26:31.816Z,100124.28
2022-12-25T13:28:58.234Z,100115.94
2022-12-25T13:31:27.274Z,100107.94
2022-12-25T13:34:05.524Z,100113.22
2022-12-25T13:36:39.789Z,100108.06
2022-12-25T13:39:15.635Z,100117.03
2022-12-25T13:41:48.284Z,100112.19
2022-12-25T13:44:24.743Z,100121.41
2022-12-25T13:46:51.488Z,100117.03
2022-12-25T13:49:20.427Z,100118.06
2022-12-25T13:51:48.358Z,100115.13
2022-12-25T13:54:16.337Z,100111.09
2022-12-25T13:56:51.818Z,100109.44
2022-12-25T13:59:20.835Z,100103.91
2022-12-25T14:01:48.377Z,100103.09
2022-12-25T14:04:21.533Z,100096.38
2022-12-25T14:06:49.418Z,100091.81
2022-12-25T14:09:16.737Z,100084.81
2022-12-25T14:11:46.673Z,100084.50
2022-12-25T14:14:18.876Z,100083.44
2022-12-25T14:16:50.488Z,100084.47
2022-12-25T14:19:25.995Z,100079.66
2022-12-25T14:22:20.700Z,100070.50
2022-12-25T14:24:47.660Z,100074.66
2022-12-25T14:27:24.044Z,100074.22
2022-12-25T14:29:53.052Z,100067.06
2022-12-25T14:32:22.595Z,100064.88
2022-12-25T14:34:53.756Z,100066.84
2022-12-25T14:37:23.531Z,100067.66
2022-12-25T14:40:05.658Z,100066.06
2022-12-25T14:42:33.993Z,100058.53
2022-12-25T14:45:06.896Z,100062.53
2022-12-25T14:47:49.728Z,100052.22
2022-12-25T14:50:25.870Z,100055.28
2022-12-25T14:52:52.612Z,100064.94
2022-12-25T14:55:24.751Z,100058.69
2022-12-25T14:58:19.510Z,100053.59
2022-12-25T15:00:54.926Z,100044.41
2022-12-25T15:03:27.955Z,100048.34
2022-12-25T15:06:25.248Z,100044.41
2022-12-25T15:08:58.688Z,100048.13
2022-12-25T15:11:25.350Z,100039.16
2022-12-25T15:13:51.741Z,100041.06
2022-12-25T15:16:25.813Z,100042.78
2022-12-25T15:18:53.198Z,100034.19
2022-12-25T15:21:25.891Z,100038.44
2022-12-25T15:23:57.073Z,100031.63
2022-12-25T15:26:24.999Z,100025.97
2022-12-25T15:28:51.615Z,100021.31
2022-12-25T15:31:21.846Z,100029.84
2022-12-25T15:33:49.304Z,100028.31
2022-12-25T15:36:15.699Z,100031.38
2022-12-25T15:38:42.123Z,100020.44
2022-12-25T15:41:20.387Z,100012.53
2022-12-25T15:43:46.752Z,100014.06
2022-12-25T15:46:13.101Z,100008.06
2022-12-25T15:48:39.528Z,100007.66
2022-12-25T15:51:05.831Z,100000.56
2022-12-25T15:53:32.168Z,100012.38
2022-12-25T15:55:58.580Z,99998.66
2022-12-25T15:58:24.962Z,100000.25
2022-12-25T16:00:51.364Z,100008.81
2022-12-25T16:03:17.771Z,100006.13
2022-12-25T16:05:44.200Z,100020.38
2022-12-25T16:08:10.580Z,99995.81
2022-12-25T16:10:39.118Z,99997.28
2022-12-25T16:13:06.832Z,100002.03
2022-12-25T16:15:33.321Z,100001.94
2022-12-25T16:17:59.791Z,100005.53
2022-12-25T16:20:26.155Z,100007.66
2022-12-25T16:22:52.552Z,99991.84
2022-12-25T16:25:19.347Z,99982.44
2022-12-25T16:27:46.239Z,99968.97
2022-12-25T16:30:15.319Z,99976.44
2022-12-25T16:32:42.378Z,99980.22
2022-12-25T16:35:09.984Z,99966.25
2022-12-25T16:37:36.796Z,99965.03
2022-12-25T16:40:03.680Z,99957.19
2022-12-25T16:42:30.283Z,99971.03
2022-12-25T16:44:56.624Z,99958.00
2022-12-25T16:47:23.082Z,99956.97
2022-12-25T16:49:49.484Z,99947.56
2022-12-25T16:52:15.818Z,99957.38
2022-12-25T16:54:42.200Z,99955.38
2022-12-25T16:57:08.593Z,99945.63
2022-12-25T16:59:35.020Z,99944.56
2022-12-25T17:02:01.600Z,99941.84
2022-12-25T17:04:28.384Z,99946.69
2022-12-25T17:06:54.827Z,99952.38
2022-12-25T17:09:21.192Z,99942.78
2022-12-25T17:11:47.601Z,99947.75
2022-12-25T17:14:13.947Z,99945.38
2022-12-25T17:16:40.498Z,99934.03
2022-12-25T17:19:15.910Z,99940.22
2022-12-25T17:21:42.250Z,99933.75
2022-12-25T17:24:09.363Z,99931.53
2022-12-25T17:26:36.421Z,99940.31
2022-12-25T17:29:02.899Z,99932.63
2022-12-25T17:31:30.577Z,99940.09
2022-12-25T17:33:57.096Z,99935.16
2022-12-25T17:36:23.577Z,99939.19
2022-12-25T17:38:50.082Z,99940.69
2022-12-25T17:41:18.209Z,99934.09
2022-12-25T17:43:44.977Z,99922.66
2022-12-25T17:46:18.395Z,99914.03
2022-12-25T17:48:45.089Z,99904.53
2022-12-25T17:51:14.585Z,99906.06
2022-12-25T17:53:43.562Z,99902.56
2022-12-25T17:56:10.951Z,99900.56
2022-12-25T17:58:37.976Z,99891.16
2022-12-25T18:01:06.545Z,99889.16
2022-12-25T18:03:33.698Z,99888.53
2022-12-25T18:06:00.735Z,99893.84
2022-12-25T18:08:30.203Z,99889.75
2022-12-25T18:11:05.364Z,99894.16
2022-12-25T18:13:32.154Z,99895.97
2022-12-25T18:16:05.711Z,99904.78
2022-12-25T18:18:32.950Z,99896.38
2022-12-25T18:20:59.582Z,99889.19
2022-12-25T18:23:26.231Z,99897.38
2022-12-25T18:25:52.662Z,99890.84
2022-12-25T18:28:19.541Z,99890.38
2022-12-25T18:30:46.443Z,99898.38
2022-12-25T18:33:12.879Z,99903.00
2022-12-25T18:35:42.382Z,99899.41
2022-12-25T18:38:09.974Z,99901.50
2022-12-25T18:40:47.569Z,99908.22
2022-12-25T18:43:15.178Z,99916.84
2022-12-25T18:45:41.930Z,99906.31
2022-12-25T18:48:09.774Z,99909.22
2022-12-25T18:50:39.158Z,99903.72
2022-12-25T18:53:06.908Z,99894.00
2022-12-25T18:55:33.356Z,99894.59
2022-12-25T18:57:59.753Z,99883.38
2022-12-25T19:00:26.573Z,99883.56
2022-12-25T19:02:57.310Z,99880.84
2022-12-25T19:05:24.216Z,99880.56
2022-12-25T19:07:50.814Z,99882.97
2022-12-25T19:10:17.246Z,99876.22
2022-12-25T19:12:43.779Z,99871.03
2022-12-25T19:15:10.548Z,99870.81
2022-12-25T19:17:36.970Z,99872.72
2022-12-25T19:20:03.877Z,99885.38
2022-12-25T19:22:30.172Z,99880.56
2022-12-25T19:24:56.551Z,99883.88
2022-12-25T19:27:22.903Z,99882.25
2022-12-25T19:29:49.306Z,99882.78
2022-12-25T19:32:15.655Z,99876.94
2022-12-25T19:34:42.101Z,99879.03
2022-12-25T19:37:08.488Z,99870.94
2022-12-25T19:39:34.886Z,99871.34
2022-12-25T19:42:01.271Z,99861.31
2022-12-25T19:44:27.675Z,99876.34
2022-12-25T19:46:54.105Z,99870.22
2022-12-25T19:49:20.503Z,99863.13
2022-12-25T19:51:46.950Z,99867.22
2022-12-25T19:54:15.699Z,99868.72
2022-12-25T19:56:43.113Z,99864.31
2022-12-25T19:59:11.502Z,99865.69
2022-12-25T20:01:38.306Z,99864.72
2022-12-25T20:04:07.095Z,99861.31
2022-12-25T20:06:34.603Z,99868.41
2022-12-25T20:09:21.825Z,99866.31
2022-12-25T20:11:48.460Z,99878.44
2022-12-25T20:14:16.410Z,99880.56
2022-12-25T20:16:43.698Z,99863.78
2022-12-25T20:19:12.519Z,99862.09
2022-12-25T20:21:39.091Z,99866.31
2022-12-25T20:24:05.930Z,99868.59
2022-12-25T20:26:32.368Z,99864.09
2022-12-25T20:28:59.231Z,99874.50
2022-12-25T20:31:32.797Z,99878.91
2022-12-25T20:34:05.529Z,99888.94
2022-12-25T20:36:36.806Z,99881.47
2022-12-25T20:39:04.305Z,99885.22
2022-12-25T20:41:30.734Z,99889.81
2022-12-25T20:43:57.573Z,99880.38
2022-12-25T20:46:25.338Z,99880.78
2022-12-25T20:48:51.921Z,99890.53
2022-12-25T20:51:20.828Z,99891.53
2022-12-25T20:53:48.140Z,99882.47
2022-12-25T20:56:18.704Z,99883.75
2022-12-25T20:58:45.492Z,99891.91
2022-12-25T21:01:14.459Z,99892.28
2022-12-25T21:03:41.796Z,99892.69
2022-12-25T21:06:09.045Z,99891.41
2022-12-25T21:08:35.820Z,99890.91
2022-12-25T21:11:02.533Z,99899.94
2022-12-25T21:13:33.039Z,99895.63
2022-12-25T21:15:59.813Z,99889.44
2022-12-25T21:18:27.908Z,99900.09
2022-12-25T21:20:56.867Z,99905.72
2022-12-25T21:23:24.104Z,99901.84
2022-12-25T21:25:50.452Z,99897.41
2022-12-25T21:28:16.885Z,99902.03
2022-12-25T21:30:46.442Z,99901.41
2022-12-25T21:33:16.891Z,99900.00
2022-12-25T21:35:43.751Z,99895.69
2022-12-25T21:38:10.368Z,99900.50
2022-12-25T21:40:38.094Z,99911.34
2022-12-25T21:43:05.524Z,99898.09
2022-12-25T21:45:33.805Z,99910.06
2022-12-25T21:48:03.169Z,99903.91
2022-12-25T21:50:35.972Z,99905.50
2022-12-25T21:53:06.026Z,99906.72
2022-12-25T21:55:32.468Z,99906.03
2022-12-25T21:57:58.769Z,99904.72
2022-12-25T22:00:25.070Z,99907.44
2022-12-25T22:02:51.508Z,99903.00
2022-12-25T22:05:17.977Z,99901.50
2022-12-25T22:07:44.271Z,99912.38
2022-12-25T22:10:10.561Z,99902.72
2022-12-25T22:12:36.912Z,99908.94
2022-12-25T22:15:05.186Z,99911.66
2022-12-25T22:17:49.444Z,99907.34
2022-12-25T22:20:32.968Z,99920.22
2022-12-25T22:22:59.267Z,99922.81
2022-12-25T22:25:29.001Z,99934.47
2022-12-25T22:27:55.710Z,99932.66
2022-12-25T22:30:26.218Z,99927.13
2022-12-25T22:32:52.911Z,99930.63
2022-12-25T22:35:19.566Z,99938.88
2022-12-25T22:37:46.429Z,99942.41
2022-12-25T22:40:15.324Z,99937.16
2022-12-25T22:42:42.273Z,99915.78
2022-12-25T22:45:09.704Z,99931.63
2022-12-25T22:47:36.080Z,99928.09
2022-12-25T22:50:02.410Z,99917.94
2022-12-25T22:52:28.756Z,99923.97
2022-12-25T22:54:55.242Z,99927.22
2022-12-25T22:57:21.568Z,99936.84
2022-12-25T22:59:47.889Z,99938.88
2022-12-25T23:02:14.405Z,99933.75
2022-12-25T23:04:40.932Z,99933.81
2022-12-25T23:07:07.246Z,99938.66
2022-12-25T23:09:34.082Z,99942.25
2022-12-25T23:12:00.406Z,99931.03
2022-12-25T23:14:27.580Z,99930.41
2022-12-25T23:16:53.895Z,99941.88
2022-12-25T23:19:20.200Z,99946.91
2022-12-25T23:21:46.604Z,99946.69
2022-12-25T23:24:12.987Z,99948.91
2022-12-25T23:26:39.298Z,99944.25
2022-12-25T23:29:05.658Z,99948.28
2022-12-25T23:31:36.374Z,99946.28
2022-12-25T23:34:04.170Z,99946.28
2022-12-25T23:36:31.142Z,99940.88
2022-12-25T23:39:00.372Z,99944.69
2022-12-25T23:41:31.318Z,99945.31
2022-12-25T23:43:57.653Z,99934.66
2022-12-25T23:46:24.030Z,99931.66
2022-12-25T23:48:50.391Z,99933.44
2022-12-25T23:51:16.734Z,99935.88
2022-12-25T23:53:43.158Z,99942.16
2022-12-25T23:56:10.627Z,99952.94
2022-12-25T23:58:37.106Z,99949.34
